Flight Track Log - Related Links

Times and Time Zones

All times are in EDT time to prevent confusion due to time zone crossing. See the UAL383 flight status page for this flight to view local times or setup timezone preferences in your user account.


Time Position Orientation Groundspeed Altitude Reporting Facility
EDT Latitude Longitude Course Direction KTS MPH feet Rate Location/Type
Thu 04:11:20 AM 21.3167 -157.8833 148° Southeast 210 242 1,100  Level Honolulu Center
Thu 04:12:21 AM 21.2667 -157.8500 148° Southeast 230 265 3,200 2,231 Climbing Honolulu Center
Thu 04:13:21 AM 21.2000 -157.8167 155° Southeast 260 299 5,600 2,571 Climbing Honolulu Center
Thu 04:14:20 AM 21.2000 -157.7333 90° East 270 311 8,300 2,400 Climbing Honolulu Center
Thu 04:15:21 AM 21.2167 -157.6500 78° East 280 322 10,400 1,934 Climbing Honolulu Center
Thu 04:16:21 AM 21.2333 -157.5667 78° East 300 345 12,200 1,500 Climbing Honolulu Center
Thu 04:17:21 AM 21.2833 -157.4833 57° Northeast 350 403 13,400 1,400 Climbing Honolulu Center
Thu 04:18:21 AM 21.3500 -157.3833 54° Northeast 370 426 15,000 1,550 Climbing Honolulu Center
Thu 04:19:21 AM 21.4000 -157.3000 57° Northeast 390 449 16,500 1,450 Climbing Honolulu Center
Thu 04:20:21 AM 21.4667 -157.2000 54° Northeast 400 460 17,900 1,350 Climbing Honolulu Center
Thu 04:21:21 AM 21.5167 -157.1000 62° Northeast 410 472 19,200 1,400 Climbing Honolulu Center
Thu 04:22:21 AM 21.5833 -156.9833 58° Northeast 420 483 20,700 1,388 Climbing Honolulu Center
Thu 04:23:22 AM 21.6500 -156.8833 54° Northeast 430 495 22,000 1,240 Climbing Honolulu Center
Thu 04:24:22 AM 21.7167 -156.7667 58° Northeast 440 506 23,200 1,200 Climbing Honolulu Center
Thu 04:25:22 AM 21.7833 -156.6667 54° Northeast 450 518 24,400 1,100 Climbing Honolulu Center
Thu 04:26:22 AM 21.8500 -156.5500 58° Northeast 460 529 25,400 1,100 Climbing Honolulu Center
Thu 04:27:22 AM 21.9333 -156.4333 52° Northeast 470 541 26,600 1,150 Climbing Honolulu Center
Thu 04:28:22 AM 22.0000 -156.3167 58° Northeast 470 541 27,700 1,050 Climbing Honolulu Center
Thu 04:29:22 AM 22.0667 -156.2000 58° Northeast 480 552 28,700 992 Climbing Honolulu Center
Thu 04:30:23 AM 22.1500 -156.0667 56° Northeast 480 552 29,700 942 Climbing Honolulu Center
Thu 04:31:23 AM 22.2167 -155.9500 58° Northeast 490 564 30,600 1,000 Climbing Honolulu Center
Thu 04:32:23 AM 22.3000 -155.8167 56° Northeast 490 564 31,700 1,050 Climbing Honolulu Center
Thu 04:33:23 AM 22.3667 -155.7000 58° Northeast 490 564 32,700 1,000 Climbing Honolulu Center
Thu 04:34:23 AM 22.4500 -155.5667 56° Northeast 490 564 33,700 900 Climbing Honolulu Center
Thu 04:35:23 AM 22.5167 -155.4500 58° Northeast 490 564 34,500 650 Climbing Honolulu Center
Thu 04:36:23 AM 22.6000 -155.3333 52° Northeast 490 564 35,000 248 Climbing Honolulu Center
Thu 04:37:24 AM 22.6667 -155.2000 62° Northeast 490 564 35,000  Level Honolulu Center
Thu 04:38:24 AM 22.7500 -155.0667 56° Northeast 490 564 35,000  Level Honolulu Center
Thu 04:39:24 AM 22.8167 -154.9500 58° Northeast 490 564 35,000  Level Honolulu Center
Thu 04:40:24 AM 22.8833 -154.8500 54° Northeast 490 564 35,000  Level Honolulu Center
Thu 04:41:24 AM 22.9500 -154.7333 58° Northeast 490 564 35,000  Level Honolulu Center
Thu 04:43:00 AM 23.0574 -154.5542 57° Northeast  Level FlightAware Approximate
Thu 04:50:00 AM 23.5247 -153.7673 57° Northeast  Level FlightAware Approximate
Thu 04:51:00 AM 23.5911 -153.6544 57° Northeast  Level FlightAware Approximate
Thu 04:52:00 AM 23.6574 -153.5414 57° Northeast  Level FlightAware Approximate
Thu 04:53:00 AM 23.7237 -153.4283 57° Northeast  Level FlightAware Approximate
Thu 04:54:00 AM 23.7925 -153.3180 57° Northeast  Level FlightAware Approximate
Thu 04:54:48 AM 23.7833 -153.3667 57° Northeast 480 552 35,000  Level Oakland Oceanic (ODAPS)
Thu 04:55:00 AM 23.8600 -153.2056 57° Northeast  Level FlightAware Approximate
Thu 04:56:00 AM 23.9273 -153.0931 57° Northeast  Level FlightAware Approximate
Thu 04:57:00 AM 23.9946 -152.9805 57° Northeast  Level FlightAware Approximate
Thu 04:58:00 AM 24.0618 -152.8677 57° Northeast  Level FlightAware Approximate
Thu 04:59:00 AM 24.1303 -152.7525 57° Northeast  Level FlightAware Approximate
Thu 05:00:00 AM 24.1987 -152.6372 57° Northeast  Level FlightAware Approximate
Thu 05:01:00 AM 24.4358 -152.2632 57° Northeast 480 552 35,000  Level FlightAware Transoceanic
Thu 05:02:00 AM 24.5078 -152.1399 57° Northeast 480 552 35,000  Level FlightAware Transoceanic
Thu 05:03:00 AM 24.5797 -152.0165 57° Northeast 480 552 35,000  Level FlightAware Transoceanic
Thu 05:04:00 AM 24.6516 -151.8929 57° Northeast 480 552 35,000  Level FlightAware Transoceanic
Thu 05:05:00 AM 24.7232 -151.7691 57° Northeast 480 552 35,000  Level FlightAware Transoceanic
Thu 05:06:00 AM 24.7948 -151.6453 58° Northeast 480 552 35,000  Level FlightAware Transoceanic
Thu 05:07:00 AM 24.8664 -151.5213 58° Northeast 480 552 35,000  Level FlightAware Transoceanic
Thu 05:08:00 AM 24.9377 -151.3971 58° Northeast 480 552 35,000  Level FlightAware Transoceanic
Thu 05:09:00 AM 25.0090 -151.2728 58° Northeast 480 552 35,000  Level FlightAware Transoceanic
Thu 05:10:00 AM 25.0802 -151.1483 58° Northeast 480 552 35,000  Level FlightAware Transoceanic
Thu 05:11:00 AM 25.1513 -151.0238 58° Northeast 480 552 35,000  Level FlightAware Transoceanic
Thu 05:12:00 AM 25.2223 -150.8990 58° Northeast 480 552 35,000  Level FlightAware Transoceanic
Thu 05:13:00 AM 25.2932 -150.7741 58° Northeast 480 552 35,000  Level FlightAware Transoceanic
Thu 05:14:00 AM 25.3640 -150.6491 58° Northeast 480 552 35,000  Level FlightAware Transoceanic
Thu 05:15:00 AM 25.4346 -150.5239 58° Northeast 480 552 35,000  Level FlightAware Transoceanic
Thu 05:16:00 AM 25.5052 -150.3986 58° Northeast 480 552 35,000  Level FlightAware Transoceanic
Thu 05:17:00 AM 25.5756 -150.2731 58° Northeast 480 552 35,000  Level FlightAware Transoceanic
Thu 05:18:00 AM 25.6460 -150.1475 58° Northeast 480 552 35,000  Level FlightAware Transoceanic
Thu 05:19:00 AM 25.7162 -150.0218 58° Northeast 480 552 35,000  Level FlightAware Transoceanic
Thu 05:20:00 AM 25.7864 -149.8958 58° Northeast 480 552 35,000  Level FlightAware Transoceanic
Thu 05:21:00 AM 25.8564 -149.7698 58° Northeast 480 552 35,000  Level FlightAware Transoceanic
Thu 05:22:00 AM 25.9263 -149.6436 58° Northeast 480 552 35,000  Level FlightAware Transoceanic
Thu 05:23:00 AM 25.9961 -149.5172 58° Northeast 480 552 35,000  Level FlightAware Transoceanic
Thu 05:24:00 AM 26.0658 -149.3907 59° Northeast 480 552 35,000  Level FlightAware Transoceanic
Thu 05:25:00 AM 26.1354 -149.2640 59° Northeast 480 552 35,000  Level FlightAware Transoceanic
Thu 05:26:00 AM 26.2049 -149.1372 59° Northeast 480 552 35,000  Level FlightAware Transoceanic
Thu 05:27:00 AM 26.2742 -149.0103 59° Northeast 480 552 35,000  Level FlightAware Transoceanic
Thu 05:28:00 AM 26.3435 -148.8831 59° Northeast 480 552 35,000  Level FlightAware Transoceanic
Thu 05:29:00 AM 26.4126 -148.7559 59° Northeast 480 552 35,000  Level FlightAware Transoceanic
Thu 05:30:00 AM 26.4816 -148.6285 59° Northeast 480 552 35,000  Level FlightAware Transoceanic
Thu 05:31:00 AM 26.5505 -148.5009 59° Northeast 480 552 35,000  Level FlightAware Transoceanic
Thu 05:32:00 AM 26.6193 -148.3732 59° Northeast 480 552 35,000  Level FlightAware Transoceanic
Thu 05:33:00 AM 26.6880 -148.2453 59° Northeast 480 552 35,000  Level FlightAware Transoceanic
Thu 05:34:00 AM 26.7566 -148.1172 59° Northeast 480 552 35,000  Level FlightAware Transoceanic
Thu 05:35:00 AM 26.8251 -147.9891 59° Northeast 480 552 35,000  Level FlightAware Transoceanic
Thu 05:36:00 AM 26.8934 -147.8607 59° Northeast 480 552 35,000  Level FlightAware Transoceanic
Thu 05:37:00 AM 26.9616 -147.7322 59° Northeast 480 552 35,000  Level FlightAware Transoceanic
Thu 05:38:00 AM 27.0297 -147.6036 59° Northeast 480 552 35,000  Level FlightAware Transoceanic
Thu 05:39:00 AM 27.0977 -147.4748 59° Northeast 480 552 35,000  Level FlightAware Transoceanic
Thu 05:40:00 AM 27.1656 -147.3458 59° Northeast 480 552 35,000  Level FlightAware Transoceanic
Thu 05:41:00 AM 27.2333 -147.2167 59° Northeast 480 552 35,000  Level FlightAware Transoceanic
Thu 05:42:00 AM 27.2959 -147.0973 59° Northeast 480 552 35,000  Level FlightAware Transoceanic
Thu 05:43:00 AM 27.3584 -146.9778 60° Northeast 480 552 35,000  Level FlightAware Transoceanic
Thu 05:43:12 AM 27.2333 -147.2167 59° Northeast 443 510 35,000  Level Oakland Oceanic (ODAPS)
Thu 05:44:00 AM 27.4207 -146.8582 60° Northeast 480 552 35,000  Level FlightAware Transoceanic
Thu 05:45:00 AM 27.4830 -146.7385 60° Northeast 480 552 35,000  Level FlightAware Transoceanic
Thu 05:46:00 AM 27.5451 -146.6186 60° Northeast 480 552 35,000  Level FlightAware Transoceanic
Thu 05:47:00 AM 27.6072 -146.4986 60° Northeast 480 552 35,000  Level FlightAware Transoceanic
Thu 05:48:00 AM 27.6691 -146.3784 60° Northeast 480 552 35,000  Level FlightAware Transoceanic
Thu 05:49:00 AM 27.7309 -146.2582 60° Northeast 443 510 35,000  Level FlightAware Transoceanic
Thu 05:50:00 AM 27.7927 -146.1377 60° Northeast 443 510 35,000  Level FlightAware Transoceanic
Thu 05:51:00 AM 27.8543 -146.0172 60° Northeast 443 510 35,000  Level FlightAware Transoceanic
Thu 05:52:00 AM 27.9158 -145.8965 60° Northeast 443 510 35,000  Level FlightAware Transoceanic
Thu 05:53:00 AM 27.9773 -145.7756 60° Northeast 443 510 35,000  Level FlightAware Transoceanic
Thu 05:54:00 AM 28.0386 -145.6547 60° Northeast 443 510 35,000  Level FlightAware Transoceanic
Thu 05:55:00 AM 28.0998 -145.5336 60° Northeast 443 510 35,000  Level FlightAware Transoceanic
Thu 05:56:00 AM 28.1609 -145.4123 60° Northeast 443 510 35,000  Level FlightAware Transoceanic
Thu 05:57:00 AM 28.2219 -145.2909 60° Northeast 443 510 35,000  Level FlightAware Transoceanic
Thu 05:58:00 AM 28.2828 -145.1694 60° Northeast 443 510 35,000  Level FlightAware Transoceanic
Thu 05:59:00 AM 28.3436 -145.0477 60° Northeast 443 510 35,000  Level FlightAware Transoceanic
Thu 06:00:00 AM 28.4042 -144.9259 61° Northeast 443 510 35,000  Level FlightAware Transoceanic
Thu 06:01:00 AM 28.4648 -144.8040 61° Northeast 443 510 35,000  Level FlightAware Transoceanic
Thu 06:02:00 AM 28.5253 -144.6819 61° Northeast 443 510 35,000  Level FlightAware Transoceanic
Thu 06:03:00 AM 28.5856 -144.5597 61° Northeast 443 510 35,000  Level FlightAware Transoceanic
Thu 06:04:00 AM 28.6459 -144.4373 61° Northeast 443 510 35,000  Level FlightAware Transoceanic
Thu 06:05:00 AM 28.7060 -144.3148 61° Northeast 443 510 35,000  Level FlightAware Transoceanic
Thu 06:06:00 AM 28.7660 -144.1922 61° Northeast 443 510 35,000  Level FlightAware Transoceanic
Thu 06:07:00 AM 28.8259 -144.0694 61° Northeast 443 510 35,000  Level FlightAware Transoceanic
Thu 06:08:00 AM 28.8857 -143.9465 61° Northeast 443 510 35,000  Level FlightAware Transoceanic
Thu 06:09:00 AM 28.9454 -143.8234 61° Northeast 443 510 35,000  Level FlightAware Transoceanic
Thu 06:10:00 AM 29.0050 -143.7002 61° Northeast 443 510 35,000  Level FlightAware Transoceanic
Thu 06:11:00 AM 29.0644 -143.5768 61° Northeast 443 510 35,000  Level FlightAware Transoceanic
Thu 06:12:00 AM 29.1238 -143.4533 61° Northeast 443 510 35,000  Level FlightAware Transoceanic
Thu 06:13:00 AM 29.1830 -143.3297 61° Northeast 443 510 35,000  Level FlightAware Transoceanic
Thu 06:14:00 AM 29.2421 -143.2059 61° Northeast 443 510 35,000  Level FlightAware Transoceanic
Thu 06:15:00 AM 29.3011 -143.0820 61° Northeast 443 510 35,000  Level FlightAware Transoceanic
Thu 06:16:00 AM 29.3600 -142.9579 61° Northeast 443 510 35,000  Level FlightAware Transoceanic
Thu 06:17:00 AM 29.4188 -142.8337 62° Northeast 443 510 35,000  Level FlightAware Transoceanic
Thu 06:18:00 AM 29.4774 -142.7094 62° Northeast 443 510 35,000  Level FlightAware Transoceanic
Thu 06:19:00 AM 29.5360 -142.5849 62° Northeast 443 510 35,000  Level FlightAware Transoceanic
Thu 06:20:00 AM 29.5944 -142.4602 62° Northeast 443 510 35,000  Level FlightAware Transoceanic
Thu 06:21:00 AM 29.6527 -142.3354 62° Northeast 443 510 35,000  Level FlightAware Transoceanic
Thu 06:22:00 AM 29.7109 -142.2105 62° Northeast 443 510 35,000  Level FlightAware Transoceanic
Thu 06:23:00 AM 29.7690 -142.0854 62° Northeast 443 510 35,000  Level FlightAware Transoceanic
Thu 06:24:00 AM 29.8270 -141.9602 62° Northeast 443 510 35,000  Level FlightAware Transoceanic
Thu 06:25:00 AM 29.8848 -141.8349 62° Northeast 443 510 35,000  Level FlightAware Transoceanic
Thu 06:26:00 AM 29.9425 -141.7093 62° Northeast 443 510 35,000  Level FlightAware Transoceanic
Thu 06:27:00 AM 30.0001 -141.5837 62° Northeast 443 510 35,000  Level FlightAware Transoceanic
Thu 06:28:00 AM 30.0576 -141.4579 62° Northeast 443 510 35,000  Level FlightAware Transoceanic
Thu 06:29:00 AM 30.1150 -141.3319 62° Northeast 443 510 35,000  Level FlightAware Transoceanic
Thu 06:30:00 AM 30.1722 -141.2058 62° Northeast 443 510 35,000  Level FlightAware Transoceanic
Thu 06:31:00 AM 30.2294 -141.0796 62° Northeast 443 510 35,000  Level FlightAware Transoceanic
Thu 06:32:00 AM 30.2864 -140.9532 62° Northeast 443 510 35,000  Level FlightAware Transoceanic
Thu 06:33:00 AM 30.3432 -140.8267 63° Northeast 443 510 35,000  Level FlightAware Transoceanic
Thu 06:34:00 AM 30.4000 -140.7000 63° Northeast 443 510 35,000  Level FlightAware Transoceanic
Thu 06:35:00 AM 30.4558 -140.5751 63° Northeast 443 510 35,000  Level FlightAware Transoceanic
Thu 06:36:00 AM 30.5116 -140.4501 63° Northeast 443 510 35,000  Level FlightAware Transoceanic
Thu 06:37:00 AM 30.5671 -140.3250 63° Northeast 443 510 35,000 571 Level FlightAware Transoceanic
Thu 06:37:45 AM 30.4000 -140.7000 63° Northeast 421 484 36,000  Climbing Oakland Oceanic (ODAPS)
Thu 06:38:00 AM 30.6226 -140.1997 63° Northeast 443 510 35,000 -800 Descending FlightAware Transoceanic
Thu 06:39:00 AM 30.6780 -140.0743 63° Northeast 443 510 35,000  Level FlightAware Transoceanic
Thu 06:40:00 AM 30.7332 -139.9487 63° Northeast 443 510 35,000  Level FlightAware Transoceanic
Thu 06:41:00 AM 30.7883 -139.8230 63° Northeast 443 510 35,000  Level FlightAware Transoceanic
Thu 06:42:00 AM 30.8433 -139.6971 63° Northeast 443 510 35,000 500 Level FlightAware Transoceanic
Thu 06:43:00 AM 30.8279 -139.7325 63° Northeast 421 484 36,000 500 Climbing FlightAware Transoceanic
Thu 06:44:00 AM 30.8809 -139.6109 63° Northeast 421 484 36,000  Level FlightAware Transoceanic
Thu 06:45:00 AM 30.9337 -139.4892 63° Northeast 421 484 36,000  Level FlightAware Transoceanic
Thu 06:46:00 AM 30.9865 -139.3674 63° Northeast 421 484 36,000  Level FlightAware Transoceanic
Thu 06:47:00 AM 31.0391 -139.2455 63° Northeast 421 484 36,000  Level FlightAware Transoceanic
Thu 06:48:00 AM 31.0916 -139.1234 63° Northeast 421 484 36,000  Level FlightAware Transoceanic
Thu 06:49:00 AM 31.1440 -139.0012 63° Northeast 421 484 36,000  Level FlightAware Transoceanic
Thu 06:50:00 AM 31.1963 -138.8788 63° Northeast 421 484 36,000  Level FlightAware Transoceanic
Thu 06:51:00 AM 31.2485 -138.7563 64° Northeast 421 484 36,000  Level FlightAware Transoceanic
Thu 06:52:00 AM 31.3006 -138.6337 64° Northeast 421 484 36,000  Level FlightAware Transoceanic
Thu 06:53:00 AM 31.3525 -138.5109 64° Northeast 421 484 36,000  Level FlightAware Transoceanic
Thu 06:54:00 AM 31.4043 -138.3880 64° Northeast 421 484 36,000  Level FlightAware Transoceanic
Thu 06:55:00 AM 31.4560 -138.2650 64° Northeast 421 484 36,000  Level FlightAware Transoceanic
Thu 06:56:00 AM 31.5076 -138.1418 64° Northeast 421 484 36,000  Level FlightAware Transoceanic
Thu 06:57:00 AM 31.5591 -138.0185 64° Northeast 421 484 36,000  Level FlightAware Transoceanic
Thu 06:58:00 AM 31.6105 -137.8951 64° Northeast 421 484 36,000  Level FlightAware Transoceanic
Thu 06:59:00 AM 31.6617 -137.7715 64° Northeast 421 484 36,000  Level FlightAware Transoceanic
Thu 07:00:00 AM 31.7128 -137.6478 64° Northeast 421 484 36,000  Level FlightAware Transoceanic
Thu 07:01:00 AM 31.7638 -137.5240 64° Northeast 421 484 36,000  Level FlightAware Transoceanic
Thu 07:02:00 AM 31.8147 -137.4000 64° Northeast 421 484 36,000  Level FlightAware Transoceanic
Thu 07:03:00 AM 31.8654 -137.2759 64° Northeast 421 484 36,000  Level FlightAware Transoceanic
Thu 07:04:00 AM 31.9161 -137.1516 64° Northeast 421 484 36,000  Level FlightAware Transoceanic
Thu 07:05:00 AM 31.9666 -137.0272 64° Northeast 421 484 36,000  Level FlightAware Transoceanic
Thu 07:06:00 AM 32.0170 -136.9027 65° Northeast 421 484 36,000  Level FlightAware Transoceanic
Thu 07:07:00 AM 32.0672 -136.7780 65° Northeast 421 484 36,000  Level FlightAware Transoceanic
Thu 07:08:00 AM 32.1174 -136.6532 65° Northeast 421 484 36,000  Level FlightAware Transoceanic
Thu 07:09:00 AM 32.1674 -136.5283 65° Northeast 421 484 36,000  Level FlightAware Transoceanic
Thu 07:10:00 AM 32.2173 -136.4032 65° Northeast 421 484 36,000  Level FlightAware Transoceanic
Thu 07:11:00 AM 32.2671 -136.2780 65° Northeast 421 484 36,000  Level FlightAware Transoceanic
Thu 07:12:00 AM 32.3168 -136.1526 65° Northeast 421 484 36,000  Level FlightAware Transoceanic
Thu 07:13:00 AM 32.3663 -136.0271 65° Northeast 421 484 36,000  Level FlightAware Transoceanic
Thu 07:14:00 AM 32.4157 -135.9015 65° Northeast 421 484 36,000  Level FlightAware Transoceanic
Thu 07:15:00 AM 32.4650 -135.7758 65° Northeast 421 484 36,000  Level FlightAware Transoceanic
Thu 07:16:00 AM 32.5141 -135.6499 65° Northeast 421 484 36,000  Level FlightAware Transoceanic
Thu 07:17:00 AM 32.5632 -135.5238 65° Northeast 421 484 36,000  Level FlightAware Transoceanic
Thu 07:18:00 AM 32.6121 -135.3976 65° Northeast 421 484 36,000  Level FlightAware Transoceanic
Thu 07:19:00 AM 32.6609 -135.2713 65° Northeast 421 484 36,000  Level FlightAware Transoceanic
Thu 07:20:00 AM 32.7095 -135.1449 65° Northeast 421 484 36,000  Level FlightAware Transoceanic
Thu 07:21:00 AM 32.7580 -135.0183 66° East 421 484 36,000  Level FlightAware Transoceanic
Thu 07:22:00 AM 32.8064 -134.8915 66° East 421 484 36,000  Level FlightAware Transoceanic
Thu 07:23:00 AM 32.8547 -134.7647 66° East 421 484 36,000  Level FlightAware Transoceanic
Thu 07:24:00 AM 32.9029 -134.6377 66° East 421 484 36,000  Level FlightAware Transoceanic
Thu 07:25:00 AM 32.9509 -134.5105 66° East 421 484 36,000  Level FlightAware Transoceanic
Thu 07:26:00 AM 32.9987 -134.3833 66° East 421 484 36,000  Level FlightAware Transoceanic
Thu 07:27:00 AM 33.0465 -134.2558 66° East 421 484 36,000  Level FlightAware Transoceanic
Thu 07:28:00 AM 33.0941 -134.1283 66° East 421 484 36,000  Level FlightAware Transoceanic
Thu 07:29:00 AM 33.1416 -134.0006 66° East 421 484 36,000  Level FlightAware Transoceanic
Thu 07:30:00 AM 33.1890 -133.8728 66° East 421 484 36,000  Level FlightAware Transoceanic
Thu 07:31:00 AM 33.2362 -133.7448 66° East 421 484 36,000  Level FlightAware Transoceanic
Thu 07:32:00 AM 33.2833 -133.6167 66° East 421 484 36,000  Level FlightAware Transoceanic
Thu 07:33:00 AM 33.3328 -133.4815 66° East 421 484 36,000  Level FlightAware Transoceanic
Thu 07:34:00 AM 33.3821 -133.3462 66° East 421 484 36,000  Level FlightAware Transoceanic
Thu 07:35:00 AM 33.4313 -133.2107 67° East 421 484 36,000  Level FlightAware Transoceanic
Thu 07:35:33 AM 33.2833 -133.6167 66° East 445 512 36,000  Level Oakland Oceanic (ODAPS)
Thu 07:36:00 AM 33.4803 -133.0751 67° East 421 484 36,000  Level FlightAware Transoceanic
Thu 07:37:00 AM 33.5291 -132.9393 67° East 421 484 36,000  Level FlightAware Transoceanic
Thu 07:38:00 AM 33.5779 -132.8034 67° East 421 484 36,000  Level FlightAware Transoceanic
Thu 07:39:00 AM 33.6264 -132.6673 67° East 421 484 36,000  Level FlightAware Transoceanic
Thu 07:40:00 AM 33.6749 -132.5311 67° East 421 484 36,000  Level FlightAware Transoceanic
Thu 07:41:00 AM 33.7231 -132.3947 67° East 445 512 36,000  Level FlightAware Transoceanic
Thu 07:42:00 AM 33.7713 -132.2582 67° East 445 512 36,000  Level FlightAware Transoceanic
Thu 07:43:00 AM 33.8192 -132.1215 67° East 445 512 36,000  Level FlightAware Transoceanic
Thu 07:44:00 AM 33.8670 -131.9847 67° East 445 512 36,000  Level FlightAware Transoceanic
Thu 07:45:00 AM 33.9147 -131.8477 67° East 445 512 36,000  Level FlightAware Transoceanic
Thu 07:46:00 AM 33.9622 -131.7105 67° East 445 512 36,000  Level FlightAware Transoceanic
Thu 07:47:00 AM 34.0096 -131.5732 67° East 445 512 36,000  Level FlightAware Transoceanic
Thu 07:48:00 AM 34.0568 -131.4358 68° East 445 512 36,000  Level FlightAware Transoceanic
Thu 07:49:00 AM 34.1039 -131.2982 68° East 445 512 36,000  Level FlightAware Transoceanic
Thu 07:50:00 AM 34.1508 -131.1604 68° East 445 512 36,000  Level FlightAware Transoceanic
Thu 07:51:00 AM 34.1975 -131.0225 68° East 445 512 36,000  Level FlightAware Transoceanic
Thu 07:52:00 AM 34.2441 -130.8844 68° East 445 512 36,000  Level FlightAware Transoceanic
Thu 07:53:00 AM 34.2906 -130.7462 68° East 445 512 36,000  Level FlightAware Transoceanic
Thu 07:54:00 AM 34.3368 -130.6078 68° East 445 512 36,000  Level FlightAware Transoceanic
Thu 07:55:00 AM 34.3830 -130.4693 68° East 445 512 36,000  Level FlightAware Transoceanic
Thu 07:56:00 AM 34.4290 -130.3306 68° East 445 512 36,000  Level FlightAware Transoceanic
Thu 07:57:00 AM 34.4748 -130.1918 68° East 445 512 36,000  Level FlightAware Transoceanic
Thu 07:58:00 AM 34.5204 -130.0528 68° East 445 512 36,000  Level FlightAware Transoceanic
Thu 07:59:00 AM 34.5659 -129.9137 68° East 445 512 36,000  Level FlightAware Transoceanic
Thu 08:00:00 AM 34.6113 -129.7744 68° East 445 512 36,000  Level FlightAware Transoceanic
Thu 08:01:00 AM 34.6565 -129.6349 69° East 445 512 36,000  Level FlightAware Transoceanic
Thu 08:02:00 AM 34.7015 -129.4953 69° East 445 512 36,000  Level FlightAware Transoceanic
Thu 08:03:00 AM 34.7464 -129.3556 69° East 445 512 36,000  Level FlightAware Transoceanic
Thu 08:04:00 AM 34.7911 -129.2157 69° East 445 512 36,000  Level FlightAware Transoceanic
Thu 08:05:00 AM 34.8356 -129.0757 69° East 445 512 36,000  Level FlightAware Transoceanic
Thu 08:06:00 AM 34.8800 -128.9355 69° East 445 512 36,000  Level FlightAware Transoceanic
Thu 08:07:00 AM 34.9242 -128.7951 69° East 445 512 36,000  Level FlightAware Transoceanic
Thu 08:08:00 AM 34.9683 -128.6546 69° East 445 512 36,000  Level FlightAware Transoceanic
Thu 08:09:00 AM 35.0122 -128.5140 69° East 445 512 36,000  Level FlightAware Transoceanic
Thu 08:10:00 AM 35.0559 -128.3732 69° East 445 512 36,000  Level FlightAware Transoceanic
Thu 08:11:00 AM 35.0995 -128.2322 69° East 445 512 36,000  Level FlightAware Transoceanic
Thu 08:12:00 AM 35.1429 -128.0911 69° East 445 512 36,000  Level FlightAware Transoceanic
Thu 08:13:00 AM 35.1862 -127.9499 70° East 445 512 36,000  Level FlightAware Transoceanic
Thu 08:14:00 AM 35.2293 -127.8085 70° East 445 512 36,000  Level FlightAware Transoceanic
Thu 08:15:00 AM 35.2722 -127.6669 70° East 445 512 36,000  Level FlightAware Transoceanic
Thu 08:16:00 AM 35.3149 -127.5252 70° East 445 512 36,000  Level FlightAware Transoceanic
Thu 08:17:00 AM 35.3575 -127.3834 70° East 445 512 36,000  Level FlightAware Transoceanic
Thu 08:18:00 AM 35.4000 -127.2414 70° East 445 512 36,000  Level FlightAware Transoceanic
Thu 08:19:00 AM 35.4422 -127.0992 70° East 445 512 36,000  Level FlightAware Transoceanic
Thu 08:20:00 AM 35.4843 -126.9569 70° East 445 512 36,000  Level FlightAware Transoceanic
Thu 08:21:00 AM 35.5262 -126.8145 70° East 445 512 36,000  Level FlightAware Transoceanic
Thu 08:22:00 AM 35.5680 -126.6719 70° East 445 512 36,000  Level FlightAware Transoceanic
Thu 08:23:00 AM 35.6096 -126.5291 70° East 445 512 36,000  Level FlightAware Transoceanic
Thu 08:23:40 AM 35.5911 -126.5306 67° East 440 506 36,000  Level Oakland Center
Thu 08:24:00 AM 35.6510 -126.3862 70° East 445 512 36,000  Level FlightAware Transoceanic
Thu 08:24:40 AM 35.6433 -126.3933 65° Northeast 442 509 36,000  Level Oakland Center
Thu 08:25:00 AM 35.6922 -126.2432 70° East 445 512 36,000  Level FlightAware Transoceanic
Thu 08:25:40 AM 35.6892 -126.2519 68° East 443 510 36,000  Level Oakland Center
Thu 08:26:00 AM 35.7333 -126.1000 67° East 445 512 36,000  Level FlightAware Transoceanic
Thu 08:26:40 AM 35.7344 -126.1117 68° East 443 510 36,000  Level Oakland Center
Thu 08:27:00 AM 35.7841 -125.9526 67° East 445 512 36,000  Level FlightAware Transoceanic
Thu 08:27:41 AM 35.7792 -125.9692 69° East 444 511 36,000  Level Oakland Center
Thu 08:28:00 AM 35.8346 -125.8050 67° East 445 512 36,000  Level FlightAware Transoceanic
Thu 08:28:41 AM 35.8267 -125.8286 67° East 446 513 36,000  Level Oakland Center
Thu 08:29:41 AM 35.8728 -125.6872 68° East 446 513 36,000  Level Oakland Center
Thu 08:30:41 AM 35.9189 -125.5447 68° East 447 514 36,000  Level Oakland Center
Thu 08:31:41 AM 35.9597 -125.3961 71° East 451 519 36,000  Level Oakland Center
Thu 08:32:41 AM 36.0058 -125.2539 68° East 449 517 36,000  Level Oakland Center
Thu 08:33:42 AM 36.0514 -125.1097 69° East 449 517 36,000  Level Oakland Center
Thu 08:34:42 AM 36.0967 -124.9658 69° East 452 520 36,000  Level Oakland Center
Thu 08:35:42 AM 36.1439 -124.8217 68° East 452 520 36,000  Level Oakland Center
Thu 08:36:42 AM 36.1906 -124.6758 68° East 457 526 36,000  Level Oakland Center
Thu 08:37:42 AM 36.2364 -124.5325 68° East 451 519 36,000 198 Level Oakland Center
Thu 08:38:43 AM 36.2828 -124.3864 68° East 456 525 36,400 496 Climbing Oakland Center
Thu 08:39:43 AM 36.3289 -124.2394 69° East 460 529 37,000 300 Climbing Oakland Center
Thu 08:40:43 AM 36.3728 -124.0958 69° East 450 518 37,000  Level Oakland Center
Thu 08:41:43 AM 36.4181 -123.9508 69° East 451 519 37,000  Level Oakland Center
Thu 08:42:45 AM 36.4639 -123.8050 69° East 454 522 37,000  Level Oakland Center
Thu 08:43:44 AM 36.5089 -123.6583 69° East 456 525 37,000 -50 Level Oakland Center
Thu 08:44:44 AM 36.5550 -123.5106 69° East 461 531 36,900  Descending Oakland Center
Thu 08:45:44 AM 36.5986 -123.3650 69° East 452 520 37,000 50 Climbing Oakland Center
Thu 08:46:44 AM 36.6442 -123.2186 69° East 454 522 37,000  Level Oakland Center
Thu 08:47:45 AM 36.6892 -123.0719 69° East 454 522 37,000  Level Oakland Center
Thu 08:48:45 AM 36.7328 -122.9228 70° East 459 528 37,000  Level Oakland Center
Thu 08:49:45 AM 36.7775 -122.7756 69° East 457 526 37,000  Level Oakland Center
Thu 08:50:45 AM 36.8211 -122.6267 70° East 458 527 37,000 -50 Level Oakland Center
Thu 08:51:45 AM 36.8639 -122.4792 70° East 457 526 36,900  Descending Oakland Center
Thu 08:52:46 AM 36.9086 -122.3256 70° East 467 537 37,000  Climbing Oakland Center
Thu 08:53:46 AM 36.9528 -122.1767 70° East 462 532 36,900  Descending Oakland Center
Thu 08:54:46 AM 36.9969 -122.0244 70° East 469 540 37,000 50 Climbing Oakland Center
Thu 08:55:46 AM 37.0403 -121.8739 70° East 465 535 37,000  Level Oakland Center
Thu 08:56:46 AM 37.0897 -121.6992 70° East 465 535 37,000  Level Oakland Center
Thu 08:57:47 AM 37.1344 -121.5475 70° East 466 536 37,000  Level Oakland Center
Thu 08:58:47 AM 37.1778 -121.3950 70° East 466 536 37,000  Level Oakland Center
Thu 08:59:47 AM 37.2217 -121.2419 70° East 467 537 37,000  Level Oakland Center
Thu 09:00:47 AM 37.2639 -121.0889 71° East 466 536 37,000  Level Oakland Center
Thu 09:01:48 AM 37.3078 -120.9358 70° East 466 536 37,000  Level Oakland Center
Thu 09:02:48 AM 37.3497 -120.7797 71° East 468 539 37,000  Level Oakland Center
Thu 09:03:48 AM 37.3911 -120.6267 71° East 468 539 37,000  Level Oakland Center
Thu 09:04:48 AM 37.4333 -120.4714 71° East 469 540 37,000  Level Oakland Center
Thu 09:05:49 AM 37.4756 -120.3153 71° East 471 542 37,000  Level Oakland Center
Thu 09:06:49 AM 37.5181 -120.1611 71° East 470 541 37,000  Level Oakland Center
Thu 09:07:49 AM 37.5586 -120.0083 71° East 465 535 37,000  Level Oakland Center
Thu 09:08:50 AM 37.6006 -119.8528 71° East 469 540 37,000  Level Oakland Center
Thu 09:09:50 AM 37.6419 -119.6964 71° East 472 543 37,000  Level Oakland Center
Thu 09:10:50 AM 37.6828 -119.5414 72° East 468 539 37,000  Level Oakland Center
Thu 09:11:51 AM 37.7233 -119.3867 72° East 464 534 37,000  Level Oakland Center
Thu 09:12:51 AM 37.7647 -119.2319 71° East 466 536 37,000  Level Oakland Center
Thu 09:13:51 AM 37.8050 -119.0750 72° East 468 539 37,000  Level Oakland Center
Thu 09:14:52 AM 37.8450 -118.9189 72° East 469 540 37,000  Level Oakland Center
Thu 09:15:52 AM 37.8897 -118.7453 72° East 472 543 37,000  Level Oakland Center
Thu 09:16:53 AM 37.9303 -118.5858 72° East 476 548 37,000  Level Oakland Center
Thu 09:17:53 AM 37.9697 -118.4250 73° East 476 548 37,000  Level Oakland Center
Thu 09:18:54 AM 38.0108 -118.2647 72° East 478 550 37,000  Level Oakland Center
Thu 09:19:54 AM 38.0508 -118.1036 72° East 479 551 37,000  Level Oakland Center
Thu 09:20:55 AM 38.0914 -117.9425 72° East 480 552 37,000  Level Oakland Center
Thu 09:21:55 AM 38.1306 -117.7794 73° East 482 555 37,000  Level Oakland Center
Thu 09:22:56 AM 38.1706 -117.6158 73° East 483 556 37,000  Level Oakland Center
Thu 09:23:56 AM 38.2106 -117.4514 73° East 482 555 37,000  Level Oakland Center
Thu 09:24:50 AM 38.2433 -117.3169 73° East 485 558 37,000  Level Salt Lake Center
Thu 09:25:51 AM 38.2842 -117.1472 73° East 486 559 37,000  Level Salt Lake Center
Thu 09:26:52 AM 38.3228 -116.9806 74° East 484 557 37,000  Level Salt Lake Center
Thu 09:27:54 AM 38.3625 -116.8147 73° East 486 559 37,000  Level Salt Lake Center
Thu 09:28:55 AM 38.3983 -116.6506 74° East 482 555 37,000  Level Salt Lake Center
Thu 09:29:56 AM 38.4069 -116.4756 86° East 492 566 37,000  Level Salt Lake Center
Thu 09:31:01 AM 38.4175 -116.2669 86° East 490 564 37,000  Level Oakland Center
Thu 09:32:02 AM 38.4261 -116.0947 86° East 486 559 37,000  Level Oakland Center
Thu 09:33:00 AM 38.4353 -115.9228 86° East 487 560 37,000  Level Salt Lake Center
Thu 09:34:01 AM 38.4408 -115.7492 88° East 488 562 37,000  Level Salt Lake Center
Thu 09:35:02 AM 38.4467 -115.5767 87° East 486 559 37,000  Level Salt Lake Center
Thu 09:36:03 AM 38.4558 -115.4050 86° East 486 559 37,000  Level Salt Lake Center
Thu 09:37:05 AM 38.4622 -115.2175 87° East 488 562 37,000  Level Salt Lake Center
Thu 09:38:06 AM 38.4664 -115.0458 88° East 485 558 37,000  Level Salt Lake Center
Thu 09:39:07 AM 38.4722 -114.8731 87° East 488 562 37,000  Level Salt Lake Center
Thu 09:40:09 AM 38.4775 -114.7028 88° East 483 556 37,000  Level Salt Lake Center
Thu 09:41:10 AM 38.4828 -114.5283 88° East 490 564 37,000  Level Salt Lake Center
Thu 09:42:11 AM 38.4864 -114.3572 88° East 485 558 37,000  Level Salt Lake Center
Thu 09:43:12 AM 38.4925 -114.1836 87° East 487 560 37,000  Level Salt Lake Center
Thu 09:44:14 AM 38.4961 -114.0089 88° East 492 566 37,000  Level Salt Lake Center
Thu 09:45:15 AM 38.5006 -113.8356 88° East 489 563 37,000  Level Salt Lake Center
Thu 09:46:16 AM 38.5044 -113.6261 89° East 492 566 37,000  Level Salt Lake Center
Thu 09:47:18 AM 38.5083 -113.4533 88° East 487 560 37,000  Level Salt Lake Center
Thu 09:48:19 AM 38.5108 -113.2786 89° East 490 564 37,000  Level Salt Lake Center
Thu 09:49:20 AM 38.5133 -113.1031 89° East 493 567 37,000  Level Salt Lake Center
Thu 09:50:22 AM 38.5169 -112.9272 88° East 494 568 37,000  Level Salt Lake Center
Thu 09:51:23 AM 38.5192 -112.7517 89° East 493 567 37,000  Level Salt Lake Center
Thu 09:52:25 AM 38.5219 -112.5761 89° East 493 567 37,000  Level Salt Lake Center
Thu 09:53:26 AM 38.5231 -112.4011 89° East 494 568 37,000  Level Salt Lake Center
Thu 09:54:27 AM 38.5261 -112.2261 89° East 493 567 37,000  Level Salt Lake Center
Thu 09:55:29 AM 38.5264 -112.0522 90° East 491 565 37,000  Level Salt Lake Center
Thu 09:56:30 AM 38.5286 -111.8442 89° East 489 563 37,000  Level Salt Lake Center
Thu 09:57:31 AM 38.5289 -111.6708 90° East 489 563 37,000  Level Salt Lake Center
Thu 09:58:33 AM 38.5289 -111.4967 90° East 491 565 37,000  Level Salt Lake Center
Thu 09:59:34 AM 38.5297 -111.3231 90° East 491 565 37,000  Level Salt Lake Center
Thu 10:00:36 AM 38.5297 -111.1489 90° East 491 565 37,000  Level Salt Lake Center
Thu 10:01:37 AM 38.5289 -110.9758 90° East 488 562 37,000  Level Salt Lake Center
Thu 10:02:38 AM 38.5281 -110.8067 90° East 486 559 37,000  Level Salt Lake Center
Thu 10:03:40 AM 38.5281 -110.6172 90° East 480 552 37,000  Level Salt Lake Center
Thu 10:04:41 AM 38.5264 -110.4544 91° East 479 551 37,000  Level Salt Lake Center
Thu 10:05:43 AM 38.5256 -110.2669 90° East 475 547 37,000 -146 Level Salt Lake Center
Thu 10:06:44 AM 38.5239 -110.1047 91° East 477 549 36,700 -537 Descending Salt Lake Center
Thu 10:07:46 AM 38.5222 -109.9131 91° East 483 556 35,900 -683 Descending Salt Lake Center
Thu 10:08:47 AM 38.5178 -109.7456 92° East 491 565 35,300 -634 Descending Salt Lake Center
Thu 10:09:49 AM 38.5139 -109.5778 92° East 495 570 34,600 -683 Descending Salt Lake Center
Thu 10:10:50 AM 38.5089 -109.3789 92° East 501 577 33,900 -600 Descending Salt Lake Center
Thu 10:11:59 AM 38.5028 -109.1797 92° East 498 573 33,300 -412 Descending Denver Center
Thu 10:13:01 AM 38.4989 -109.0133 92° East 491 565 33,000 -146 Descending Denver Center
Thu 10:14:02 AM 38.4933 -108.8192 92° East 492 566 33,000  Level Denver Center
Thu 10:15:04 AM 38.4881 -108.6525 92° East 493 567 33,000  Level Denver Center
Thu 10:16:06 AM 38.4822 -108.4586 92° East 491 565 33,000  Level Denver Center
Thu 10:17:07 AM 38.4758 -108.2925 93° East 492 566 33,000  Level Denver Center
Thu 10:18:09 AM 38.4731 -108.0983 91° East 493 567 33,000  Level Denver Center
Thu 10:19:11 AM 38.5125 -107.9453 72° East 479 551 33,000  Level Denver Center
Thu 10:20:13 AM 38.5739 -107.7769 65° Northeast 470 541 33,000  Level Denver Center
Thu 10:21:14 AM 38.6278 -107.6322 64° Northeast 471 542 33,000  Level Denver Center
Thu 10:22:16 AM 38.6894 -107.4644 65° Northeast 469 540 33,000  Level Denver Center
Thu 10:23:18 AM 38.7417 -107.3208 65° Northeast 466 536 33,000  Level Denver Center
Thu 10:24:20 AM 38.7903 -107.1892 65° Northeast 463 533 33,000  Level Denver Center
Thu 10:25:22 AM 38.8556 -107.0089 65° Northeast 464 534 33,000  Level Denver Center
Thu 10:26:23 AM 38.9072 -106.8656 65° Northeast 468 539 33,000  Level Denver Center
Thu 10:27:25 AM 38.9678 -106.6969 65° Northeast 466 536 33,000 -484 Level Denver Center
Thu 10:28:27 AM 39.0189 -106.5536 65° Northeast 462 532 32,000 -1,355 Descending Denver Center
Thu 10:29:29 AM 39.0772 -106.3917 65° Northeast 449 517 30,200 -1,790 Descending Denver Center
Thu 10:30:31 AM 39.1253 -106.2581 65° Northeast 435 501 28,300 -1,887 Descending Denver Center
Thu 10:31:33 AM 39.1761 -106.1111 66° East 416 479 26,300 -1,887 Descending Denver Center
Thu 10:32:35 AM 39.2208 -105.9833 66° East 397 457 24,400 -1,790 Descending Denver Center
Thu 10:33:37 AM 39.2625 -105.8633 66° East 372 428 22,600 -1,694 Descending Denver Center
Thu 10:34:39 AM 39.3033 -105.7472 66° East 359 413 20,900 -1,694 Descending Denver Center
Thu 10:35:41 AM 39.3422 -105.6314 67° East 353 406 19,100 -1,355 Descending Denver Center
Thu 10:36:43 AM 39.3828 -105.5153 66° East 356 410 18,100 -774 Descending Denver Center
Thu 10:37:45 AM 39.3994 -105.3897 80° East 306 352 17,500 -1,016 Descending Denver Center
Thu 10:38:47 AM 39.4044 -105.2675 87° East 316 364 16,000 -1,355 Descending Denver Center
Thu 10:39:49 AM 39.4094 -105.1594 87° East 305 351 14,700 -1,210 Descending Denver Center
Thu 10:40:51 AM 39.4142 -105.0461 87° East 297 342 13,500 -774 Descending Denver Center
Thu 10:41:53 AM 39.4175 -104.9525 87° East 268 308 13,100 -581 Descending Denver Center
Thu 10:42:55 AM 39.4564 -104.8811 55° Northeast 233 268 12,300 -871 Descending Denver Center
Thu 10:43:57 AM 39.5050 -104.8261 41° Northeast 231 266 11,300 -1,113 Descending Denver Center
Thu 10:44:59 AM 39.5561 -104.7681 41° Northeast 229 264 10,000 -1,258 Descending Denver Center
Thu 10:46:01 AM 39.6097 -104.7206 34° Northeast 233 268 8,700 -871 Descending Denver Center
Thu 10:47:03 AM 39.6678 -104.6847 25° Northeast 213 245 8,200 -532 Descending Denver Center
Thu 10:48:05 AM 39.7172 -104.6661 16° North 189 217 7,600 -581 Descending Denver Center

Login

Don't have an account? Register now (free) for customized features, flight alerts, and more!